createdAt,value
2018-07-27T00:01:33.237Z,18.40
2018-07-27T00:04:02.660Z,18.30
2018-07-27T00:06:32.319Z,18.30
2018-07-27T00:09:01.608Z,18.20
2018-07-27T00:11:31.942Z,18.10
2018-07-27T00:14:01.200Z,18.10
2018-07-27T00:16:30.823Z,18.00
2018-07-27T00:19:01.456Z,18.00
2018-07-27T00:21:31.112Z,17.90
2018-07-27T00:24:00.476Z,17.80
2018-07-27T00:26:30.120Z,17.70
2018-07-27T00:28:59.426Z,17.60
2018-07-27T00:31:28.792Z,17.70
2018-07-27T00:33:58.245Z,17.70
2018-07-27T00:36:27.659Z,17.60
2018-07-27T00:38:57.076Z,17.60
2018-07-27T00:41:26.397Z,17.60
2018-07-27T00:43:55.936Z,17.60
2018-07-27T00:46:25.271Z,17.60
2018-07-27T00:48:54.563Z,17.60
2018-07-27T00:51:23.915Z,17.60
2018-07-27T00:53:53.259Z,17.60
2018-07-27T00:58:52.329Z,17.50
2018-07-27T01:01:21.682Z,17.60
2018-07-27T01:03:51.650Z,17.60
2018-07-27T01:06:21.085Z,17.60
2018-07-27T01:11:20.320Z,17.60
2018-07-27T01:13:50.239Z,17.60
2018-07-27T01:16:19.485Z,17.50
2018-07-27T01:18:48.696Z,17.50
2018-07-27T01:21:18.016Z,17.50
2018-07-27T01:23:47.220Z,17.40
2018-07-27T01:26:16.443Z,17.40
2018-07-27T01:28:45.630Z,17.30
2018-07-27T01:31:14.911Z,17.20
2018-07-27T01:33:44.155Z,17.20
2018-07-27T01:36:13.393Z,17.10
2018-07-27T01:38:42.690Z,17.10
2018-07-27T01:43:41.255Z,16.90
2018-07-27T01:46:10.591Z,16.90
2018-07-27T01:48:39.871Z,16.80
2018-07-27T01:51:09.148Z,16.80
2018-07-27T01:53:38.443Z,16.70
2018-07-27T01:56:07.653Z,16.70
2018-07-27T01:58:36.875Z,16.80
2018-07-27T02:01:06.116Z,16.70
2018-07-27T02:03:35.413Z,16.70
2018-07-27T02:06:04.735Z,16.70
2018-07-27T02:08:34.034Z,16.70
2018-07-27T02:11:03.293Z,16.70
2018-07-27T02:13:32.504Z,16.70
2018-07-27T02:16:01.764Z,16.70
2018-07-27T02:18:30.999Z,16.70
2018-07-27T02:21:00.251Z,16.70
2018-07-27T02:25:58.206Z,16.60
2018-07-27T02:28:27.455Z,16.70
2018-07-27T02:30:57.163Z,16.70
2018-07-27T02:33:26.594Z,16.70
2018-07-27T02:35:56.505Z,16.70
2018-07-27T02:38:27.050Z,16.60
2018-07-27T02:40:56.483Z,16.70
2018-07-27T02:43:25.849Z,16.70
2018-07-27T02:45:55.163Z,16.60
2018-07-27T02:48:24.560Z,16.60
2018-07-27T02:50:53.906Z,16.60
2018-07-27T02:53:23.198Z,16.60
2018-07-27T02:55:52.539Z,16.50
2018-07-27T02:58:22.053Z,16.50
2018-07-27T03:00:51.484Z,16.40
2018-07-27T03:05:49.760Z,16.30
2018-07-27T03:08:19.121Z,16.20
2018-07-27T03:10:48.557Z,16.20
2018-07-27T03:15:46.840Z,16.20
2018-07-27T03:18:17.195Z,16.10
2018-07-27T03:23:16.039Z,16.00
2018-07-27T03:25:45.380Z,16.00
2018-07-27T03:28:14.719Z,16.10
2018-07-27T03:30:44.045Z,16.00
2018-07-27T03:33:13.376Z,16.00
2018-07-27T03:35:42.718Z,16.10
2018-07-27T03:38:12.161Z,16.10
2018-07-27T03:40:41.547Z,16.10
2018-07-27T03:43:10.930Z,16.00
2018-07-27T03:45:40.264Z,16.00
2018-07-27T03:48:10.427Z,16.00
2018-07-27T03:50:41.401Z,15.90
2018-07-27T03:53:11.154Z,15.90
2018-07-27T03:58:09.441Z,15.80
2018-07-27T04:03:07.685Z,15.80
2018-07-27T04:05:37.046Z,15.80
2018-07-27T04:08:06.427Z,15.90
2018-07-27T04:13:04.672Z,15.90
2018-07-27T04:15:34.040Z,15.80
2018-07-27T04:18:04.358Z,15.90
2018-07-27T04:20:33.983Z,15.90
2018-07-27T04:23:03.361Z,16.00
2018-07-27T04:25:32.695Z,16.00
2018-07-27T04:28:02.131Z,16.00
2018-07-27T04:30:31.587Z,16.00
2018-07-27T04:33:00.983Z,16.10
2018-07-27T04:35:30.305Z,16.10
2018-07-27T04:37:59.662Z,16.10
2018-07-27T04:40:28.995Z,16.10
2018-07-27T04:42:58.523Z,16.10
2018-07-27T04:45:29.083Z,16.20
2018-07-27T04:47:58.453Z,16.20
2018-07-27T04:50:27.846Z,16.20
2018-07-27T04:52:57.128Z,16.20
2018-07-27T04:55:26.620Z,16.30
2018-07-27T04:57:55.878Z,16.30
2018-07-27T05:02:53.802Z,16.50
2018-07-27T05:05:23.095Z,16.60
2018-07-27T05:07:52.461Z,16.70
2018-07-27T05:10:27.623Z,16.90
2018-07-27T05:12:56.842Z,17.00
2018-07-27T05:15:26.121Z,17.20
2018-07-27T05:17:55.546Z,17.30
2018-07-27T05:20:24.767Z,17.60
2018-07-27T05:22:54.025Z,17.80
2018-07-27T05:25:23.395Z,18.00
2018-07-27T05:30:22.094Z,18.50
2018-07-27T05:35:20.127Z,19.10
2018-07-27T05:37:49.421Z,19.30
2018-07-27T05:40:18.624Z,19.60
2018-07-27T05:42:47.935Z,19.90
2018-07-27T05:45:17.232Z,20.10
2018-07-27T05:47:47.162Z,20.20
2018-07-27T05:50:16.410Z,20.40
2018-07-27T05:52:45.646Z,20.60
2018-07-27T05:55:15.153Z,20.80
2018-07-27T05:57:44.386Z,21.00
2018-07-27T06:00:14.617Z,20.90
2018-07-27T06:02:43.859Z,21.00
2018-07-27T06:05:13.155Z,21.10
2018-07-27T06:07:42.403Z,21.20
2018-07-27T06:10:11.779Z,21.40
2018-07-27T06:12:41.331Z,21.40
2018-07-27T06:15:10.645Z,21.40
2018-07-27T06:17:40.007Z,21.30
2018-07-27T06:20:09.888Z,21.30
2018-07-27T06:22:40.385Z,21.40
2018-07-27T06:25:11.176Z,21.30
2018-07-27T06:27:40.420Z,21.40
2018-07-27T06:30:09.726Z,21.50
2018-07-27T06:32:38.935Z,21.40
2018-07-27T06:35:08.252Z,21.40
2018-07-27T06:40:06.803Z,21.20
2018-07-27T06:42:36.592Z,21.30
2018-07-27T06:45:06.860Z,21.20
2018-07-27T06:47:36.124Z,21.20
2018-07-27T06:50:05.972Z,21.20
2018-07-27T06:52:35.415Z,21.20
2018-07-27T06:55:04.870Z,21.10
2018-07-27T06:57:34.088Z,21.20
2018-07-27T07:00:03.752Z,21.30
2018-07-27T07:02:34.680Z,21.30
2018-07-27T07:05:04.105Z,21.40
2018-07-27T07:07:33.410Z,21.40
2018-07-27T07:10:02.962Z,21.50
2018-07-27T07:12:32.342Z,21.60
2018-07-27T07:15:01.728Z,21.70
2018-07-27T07:17:31.112Z,21.70
2018-07-27T07:20:00.454Z,21.90
2018-07-27T07:22:29.772Z,22.20
2018-07-27T07:24:59.084Z,22.70
2018-07-27T07:27:28.486Z,23.10
2018-07-27T07:29:57.761Z,23.40
2018-07-27T07:32:27.155Z,23.80
2018-07-27T07:34:56.617Z,24.10
2018-07-27T07:37:25.904Z,24.30
2018-07-27T07:39:55.274Z,24.50
2018-07-27T07:42:24.632Z,24.70
2018-07-27T07:44:54.037Z,25.00
2018-07-27T07:49:52.293Z,25.40
2018-07-27T07:52:21.584Z,25.80
2018-07-27T07:54:50.979Z,25.60
2018-07-27T07:57:20.494Z,25.80
2018-07-27T07:59:50.008Z,25.80
2018-07-27T08:02:19.379Z,25.80
2018-07-27T08:04:48.843Z,25.70
2018-07-27T08:09:47.813Z,25.90
2018-07-27T08:12:17.214Z,26.20
2018-07-27T08:17:15.448Z,26.50
2018-07-27T08:19:44.895Z,26.60
2018-07-27T08:22:14.248Z,26.50
2018-07-27T08:24:43.716Z,26.50
2018-07-27T08:27:13.530Z,26.40
2018-07-27T08:29:45.844Z,26.30
2018-07-27T08:32:15.740Z,26.40
2018-07-27T08:34:45.137Z,26.70
2018-07-27T08:37:14.735Z,27.00
2018-07-27T08:42:13.314Z,27.20
2018-07-27T08:44:43.260Z,27.20
2018-07-27T08:47:12.627Z,26.90
2018-07-27T08:49:42.051Z,27.10
2018-07-27T08:52:11.466Z,27.20
2018-07-27T08:54:40.818Z,27.30
2018-07-27T08:57:10.116Z,27.50
2018-07-27T08:59:39.546Z,27.60
2018-07-27T09:04:37.785Z,27.90
2018-07-27T09:07:08.061Z,28.00
2018-07-27T09:09:37.556Z,27.90
2018-07-27T09:14:35.776Z,27.70
2018-07-27T09:17:05.404Z,27.90
2018-07-27T09:19:35.413Z,28.00
2018-07-27T09:22:04.959Z,28.00
2018-07-27T09:24:34.452Z,28.00
2018-07-27T09:27:03.819Z,27.90
2018-07-27T09:29:33.227Z,28.00
2018-07-27T09:32:02.693Z,28.10
2018-07-27T09:34:32.119Z,28.30
2018-07-27T09:37:03.624Z,28.10
2018-07-27T09:42:01.985Z,28.20
2018-07-27T09:44:31.335Z,28.40
2018-07-27T09:47:00.745Z,28.30
2018-07-27T09:49:30.235Z,28.20
2018-07-27T09:52:00.224Z,28.00
2018-07-27T09:54:29.576Z,28.00
2018-07-27T09:56:59.069Z,27.90
2018-07-27T09:59:28.400Z,27.70
2018-07-27T10:01:57.766Z,27.40
2018-07-27T10:04:27.120Z,27.50
2018-07-27T10:06:57.214Z,27.50
2018-07-27T10:09:27.609Z,27.40
2018-07-27T10:11:57.355Z,27.50
2018-07-27T10:14:26.867Z,27.40
2018-07-27T10:16:56.203Z,27.30
2018-07-27T10:19:25.682Z,27.40
2018-07-27T10:21:55.210Z,27.30
2018-07-27T10:24:25.663Z,27.30
2018-07-27T10:26:55.099Z,27.30
2018-07-27T10:29:24.465Z,27.20
2018-07-27T10:31:53.935Z,27.20
2018-07-27T10:34:23.491Z,27.30
2018-07-27T10:36:53.166Z,27.30
2018-07-27T10:39:22.930Z,27.40
2018-07-27T10:41:52.412Z,27.40
2018-07-27T10:44:21.941Z,27.50
2018-07-27T10:46:51.307Z,27.60
2018-07-27T10:49:20.829Z,27.60
2018-07-27T10:51:50.221Z,27.60
2018-07-27T10:54:21.192Z,27.70
2018-07-27T10:59:19.601Z,27.80
2018-07-27T11:01:49.207Z,27.80
2018-07-27T11:06:47.442Z,27.90
2018-07-27T11:09:16.794Z,28.00
2018-07-27T11:11:46.195Z,28.10
2018-07-27T11:16:44.404Z,28.10
2018-07-27T11:19:13.905Z,28.10
2018-07-27T11:21:43.375Z,28.10
2018-07-27T11:24:12.713Z,28.00
2018-07-27T11:26:42.201Z,28.00
2018-07-27T11:29:11.716Z,28.20
2018-07-27T11:31:41.207Z,28.30
2018-07-27T11:34:10.982Z,28.40
2018-07-27T11:36:40.317Z,28.50
2018-07-27T11:39:12.136Z,28.50
2018-07-27T11:41:41.754Z,28.50
2018-07-27T11:44:11.147Z,28.40
2018-07-27T11:46:40.658Z,28.20
2018-07-27T11:49:10.817Z,28.10
2018-07-27T11:51:40.437Z,28.30
2018-07-27T11:54:09.981Z,28.30
2018-07-27T11:56:39.387Z,28.10
2018-07-27T11:59:08.998Z,28.10
2018-07-27T12:01:38.726Z,28.10
2018-07-27T12:04:08.163Z,28.20
2018-07-27T12:06:37.531Z,28.30
2018-07-27T12:09:10.690Z,28.40
2018-07-27T12:11:40.216Z,28.40
2018-07-27T12:14:10.800Z,28.40
2018-07-27T12:16:39.930Z,28.40
2018-07-27T12:19:09.270Z,28.40
2018-07-27T12:21:38.831Z,28.50
2018-07-27T12:26:37.021Z,28.40
2018-07-27T12:31:35.370Z,28.30
2018-07-27T12:34:05.290Z,28.30
2018-07-27T12:36:35.322Z,28.40
2018-07-27T12:39:06.702Z,28.40
2018-07-27T12:41:37.094Z,28.40
2018-07-27T12:44:06.508Z,28.40
2018-07-27T12:46:36.253Z,28.50
2018-07-27T12:49:05.699Z,28.50
2018-07-27T12:51:35.157Z,28.40
2018-07-27T12:54:04.472Z,28.40
2018-07-27T12:56:34.029Z,28.50
2018-07-27T13:01:32.503Z,28.50
2018-07-27T13:04:01.926Z,28.50
2018-07-27T13:09:00.256Z,28.50
2018-07-27T13:11:29.649Z,28.60
2018-07-27T13:13:58.993Z,28.70
2018-07-27T13:16:28.360Z,28.80
2018-07-27T13:18:57.699Z,28.70
2018-07-27T13:21:27.076Z,28.70
2018-07-27T13:23:59.859Z,28.70
2018-07-27T13:26:29.332Z,28.60
2018-07-27T13:28:59.168Z,28.50
2018-07-27T13:31:54.126Z,28.50
2018-07-27T13:34:44.149Z,28.50
2018-07-27T13:37:14.080Z,28.50
2018-07-27T13:39:44.348Z,28.50
2018-07-27T13:42:16.013Z,28.50
2018-07-27T13:44:46.103Z,28.50
2018-07-27T13:47:16.101Z,28.40
2018-07-27T13:49:47.841Z,28.50
2018-07-27T13:52:17.804Z,28.50
2018-07-27T13:54:47.263Z,28.50
2018-07-27T13:57:17.343Z,28.60
2018-07-27T13:59:47.102Z,28.60
2018-07-27T14:02:16.623Z,28.70
2018-07-27T14:04:45.980Z,28.80
2018-07-27T14:07:16.778Z,28.90
2018-07-27T14:09:46.340Z,29.00
2018-07-27T14:12:15.775Z,28.90
2018-07-27T14:14:45.235Z,28.80
2018-07-27T14:17:14.691Z,28.70
2018-07-27T14:19:44.043Z,28.70
2018-07-27T14:22:15.130Z,28.70
2018-07-27T14:24:44.662Z,28.70
2018-07-27T14:27:14.372Z,28.60
2018-07-27T14:29:45.213Z,28.60
2018-07-27T14:32:14.743Z,28.60
2018-07-27T14:37:23.359Z,28.40
2018-07-27T14:39:52.886Z,28.40
2018-07-27T14:47:20.846Z,28.40
2018-07-27T14:49:50.705Z,28.30
2018-07-27T14:52:20.342Z,28.30
2018-07-27T14:54:50.657Z,28.30
2018-07-27T14:57:20.085Z,28.30
2018-07-27T14:59:50.560Z,28.30
2018-07-27T15:02:20.218Z,28.20
2018-07-27T15:04:49.672Z,28.20
2018-07-27T15:07:19.352Z,28.30
2018-07-27T15:12:18.277Z,28.20
2018-07-27T15:14:48.483Z,28.10
2018-07-27T15:17:22.216Z,28.00
2018-07-27T15:19:51.681Z,28.00
2018-07-27T15:22:25.330Z,28.00
2018-07-27T15:24:54.869Z,28.10
2018-07-27T15:27:24.660Z,28.10
2018-07-27T15:29:54.688Z,28.10
2018-07-27T15:32:24.358Z,28.10
2018-07-27T15:34:53.760Z,28.00
2018-07-27T15:37:25.552Z,28.00
2018-07-27T15:39:55.717Z,28.00
2018-07-27T15:42:25.150Z,28.00
2018-07-27T15:44:54.415Z,27.90
2018-07-27T15:47:23.746Z,27.90
2018-07-27T15:49:53.056Z,27.90
2018-07-27T15:52:22.541Z,27.80
2018-07-27T15:54:52.324Z,27.80
2018-07-27T15:57:21.672Z,27.80
2018-07-27T15:59:50.957Z,27.80
2018-07-27T16:02:20.452Z,27.80
2018-07-27T16:04:49.830Z,27.80
2018-07-27T16:07:19.174Z,27.80
2018-07-27T16:09:48.510Z,27.80
2018-07-27T16:12:17.809Z,27.70
2018-07-27T16:17:16.335Z,27.70
2018-07-27T16:19:45.990Z,27.80
2018-07-27T16:22:15.288Z,27.80
2018-07-27T16:24:44.791Z,27.80
2018-07-27T16:27:14.121Z,27.70
2018-07-27T16:29:43.389Z,27.70
2018-07-27T16:32:14.793Z,27.60
2018-07-27T16:34:44.228Z,27.60
2018-07-27T16:37:13.605Z,27.60
2018-07-27T16:39:42.847Z,27.50
2018-07-27T16:42:12.189Z,27.40
2018-07-27T16:44:41.431Z,27.40
2018-07-27T16:47:10.927Z,27.40
2018-07-27T16:49:43.171Z,27.50
2018-07-27T16:52:13.188Z,27.50
2018-07-27T16:54:43.550Z,27.40
2018-07-27T16:57:14.733Z,27.40
2018-07-27T16:59:44.306Z,27.30
2018-07-27T17:02:13.774Z,27.30
2018-07-27T17:04:44.033Z,27.20
2018-07-27T17:09:42.492Z,27.10
2018-07-27T17:12:13.067Z,27.10
2018-07-27T17:17:17.209Z,27.10
2018-07-27T17:19:49.923Z,27.10
2018-07-27T17:22:27.943Z,27.00
2018-07-27T17:24:58.311Z,27.00
2018-07-27T17:27:28.052Z,26.90
2018-07-27T17:29:57.730Z,26.80
2018-07-27T17:32:29.067Z,26.70
2018-07-27T17:34:59.123Z,26.70
2018-07-27T17:37:29.364Z,26.70
2018-07-27T17:40:06.921Z,26.70
2018-07-27T17:42:40.244Z,26.60
2018-07-27T17:45:13.622Z,26.60
2018-07-27T17:47:44.597Z,26.60
2018-07-27T17:52:48.977Z,26.40
2018-07-27T17:55:29.278Z,26.30
2018-07-27T17:57:59.757Z,26.20
2018-07-27T18:00:31.735Z,26.20
2018-07-27T18:03:01.236Z,26.10
2018-07-27T18:05:35.225Z,26.10
2018-07-27T18:08:05.089Z,26.00
2018-07-27T18:10:34.549Z,25.90
2018-07-27T18:13:03.940Z,25.80
2018-07-27T18:15:33.542Z,25.80
2018-07-27T18:18:03.062Z,25.70
2018-07-27T18:20:34.450Z,25.60
2018-07-27T18:23:05.343Z,25.50
2018-07-27T18:25:36.101Z,25.30
2018-07-27T18:28:06.361Z,25.20
2018-07-27T18:30:37.145Z,25.00
2018-07-27T18:33:07.519Z,24.90
2018-07-27T18:35:36.955Z,24.80
2018-07-27T18:38:06.332Z,24.70
2018-07-27T18:40:36.957Z,24.60
2018-07-27T18:43:06.712Z,24.40
2018-07-27T18:45:36.306Z,24.30
2018-07-27T18:48:05.873Z,24.10
2018-07-27T18:50:37.116Z,24.00
2018-07-27T18:53:07.182Z,23.90
2018-07-27T18:55:40.577Z,23.80
2018-07-27T18:58:10.036Z,23.70
2018-07-27T19:00:39.495Z,23.50
2018-07-27T19:03:09.084Z,23.40
2018-07-27T19:05:42.241Z,23.40
2018-07-27T19:08:13.137Z,23.20
2018-07-27T19:13:11.766Z,23.00
2018-07-27T19:15:41.239Z,22.90
2018-07-27T19:20:39.563Z,22.70
2018-07-27T19:23:10.329Z,22.60
2018-07-27T19:25:42.017Z,22.50
2018-07-27T19:28:11.575Z,22.40
2018-07-27T19:30:41.792Z,22.30
2018-07-27T19:33:12.338Z,22.20
2018-07-27T19:35:42.116Z,22.10
2018-07-27T19:38:11.536Z,22.00
2018-07-27T19:40:41.494Z,21.90
2018-07-27T19:45:41.658Z,21.70
2018-07-27T19:48:11.358Z,21.60
2018-07-27T19:50:43.884Z,21.60
2018-07-27T19:53:18.615Z,21.50
2018-07-27T19:55:52.019Z,21.40
2018-07-27T20:01:00.575Z,21.30
2018-07-27T20:03:30.043Z,21.30
2018-07-27T20:05:59.594Z,21.20
2018-07-27T20:08:35.799Z,21.20
2018-07-27T20:11:09.040Z,21.10
2018-07-27T20:13:39.269Z,21.00
2018-07-27T20:16:09.216Z,21.00
2018-07-27T20:18:38.648Z,21.00
2018-07-27T20:21:08.217Z,20.90
2018-07-27T20:23:37.698Z,20.90
2018-07-27T20:26:07.340Z,20.80
2018-07-27T20:28:36.899Z,20.80
2018-07-27T20:31:06.589Z,20.70
2018-07-27T20:33:36.115Z,20.70
2018-07-27T20:36:05.926Z,20.60
2018-07-27T20:38:35.336Z,20.50
2018-07-27T20:41:04.683Z,20.50
2018-07-27T20:43:34.075Z,20.40
2018-07-27T20:46:04.115Z,20.40
2018-07-27T20:48:33.635Z,20.30
2018-07-27T20:51:03.200Z,20.30
2018-07-27T20:53:32.598Z,20.30
2018-07-27T20:56:01.971Z,20.20
2018-07-27T20:58:31.319Z,20.20
2018-07-27T21:01:00.910Z,20.20
2018-07-27T21:03:38.116Z,20.10
2018-07-27T21:06:07.828Z,20.10
2018-07-27T21:11:09.227Z,20.10
2018-07-27T21:13:38.680Z,20.10
2018-07-27T21:16:09.176Z,20.00
2018-07-27T21:18:38.599Z,20.10
2018-07-27T21:21:10.667Z,20.00
2018-07-27T21:23:40.092Z,20.00
2018-07-27T21:26:09.478Z,20.00
2018-07-27T21:31:09.014Z,19.80
2018-07-27T21:33:38.882Z,19.90
2018-07-27T21:38:38.460Z,19.80
2018-07-27T21:41:09.031Z,19.70
2018-07-27T21:43:38.961Z,19.70
2018-07-27T21:46:09.000Z,19.70
2018-07-27T21:51:08.689Z,19.60
2018-07-27T21:53:39.195Z,19.50
2018-07-27T21:56:09.122Z,19.50
2018-07-27T21:58:38.960Z,19.50
2018-07-27T22:01:09.104Z,19.40
2018-07-27T22:03:39.106Z,19.30
2018-07-27T22:06:08.953Z,19.30
2018-07-27T22:11:08.933Z,19.20
2018-07-27T22:13:38.892Z,19.10
2018-07-27T22:16:09.705Z,19.10
2018-07-27T22:18:40.011Z,19.00
2018-07-27T22:23:38.399Z,19.00
2018-07-27T22:26:07.935Z,18.90
2018-07-27T22:28:37.776Z,18.90
2018-07-27T22:31:07.587Z,18.90
2018-07-27T22:33:36.955Z,18.80
2018-07-27T22:36:06.503Z,18.70
2018-07-27T22:38:35.911Z,18.70
2018-07-27T22:41:05.253Z,18.70
2018-07-27T22:43:34.664Z,18.70
2018-07-27T22:46:04.043Z,18.60
2018-07-27T22:48:33.864Z,18.60
2018-07-27T22:51:03.227Z,18.50
2018-07-27T22:53:32.686Z,18.50
2018-07-27T22:56:02.048Z,18.50
2018-07-27T22:58:31.361Z,18.50
2018-07-27T23:01:00.812Z,18.50
2018-07-27T23:03:30.116Z,18.50
2018-07-27T23:05:59.392Z,18.50
2018-07-27T23:08:30.061Z,18.50
2018-07-27T23:13:28.350Z,18.30
2018-07-27T23:18:27.019Z,18.30
2018-07-27T23:20:56.405Z,18.30
2018-07-27T23:23:25.731Z,18.20
2018-07-27T23:25:55.017Z,18.20
2018-07-27T23:28:24.395Z,18.20
2018-07-27T23:30:53.596Z,18.30
2018-07-27T23:33:22.895Z,18.20
2018-07-27T23:35:52.315Z,18.10
2018-07-27T23:38:21.914Z,18.20
2018-07-27T23:40:51.203Z,18.10
2018-07-27T23:43:20.503Z,18.10
2018-07-27T23:45:49.833Z,18.10
2018-07-27T23:48:19.107Z,18.00
2018-07-27T23:50:48.324Z,17.90
2018-07-27T23:53:17.766Z,17.90
2018-07-27T23:55:48.345Z,17.80
2018-07-27T23:58:17.669Z,17.90
